Ponte Serrada, Brazil
Current Conditions -  °F | °C
As of 5:35 PM on Saturday 25 Oct 2014 (Local Time) from SBCH Reporting Station
Few Clouds Few Clouds  
Wind Chill: 88°   Ceiling: Unl
Heat Index: 88°   Visibility: 6mi
Dew Point: 57°   Wind: 16mph
Humidity: 35%   Direction: 280°W
Pressure: 29.88"   Gusts: NA
Location:  26.87°S, 52.02°W
Report Text: SBCH 251935Z 28014KT 9999 FEW025TCU 31/14 Q1012
Loading
Personal Weather Stations






























Interactive Weather Map
Tropical Storm Tracking
New forecast layout! Learn more

10-Day Weather Forecast

Advertisements
Track Severe Weather on mobile